createdAt,value
2022-12-25T00:24:54.390Z,8.03
2022-12-25T02:17:38.290Z,10.80
2022-12-25T02:27:58.991Z,10.00
2022-12-25T03:22:46.440Z,13.93
2022-12-25T03:31:50.130Z,10.53
2022-12-25T03:41:36.051Z,8.57
2022-12-25T03:56:51.756Z,5.57
2022-12-25T04:01:18.913Z,8.80
2022-12-25T04:05:45.977Z,11.83
2022-12-25T04:10:19.691Z,9.93
2022-12-25T04:14:49.915Z,8.80
2022-12-25T04:19:21.581Z,9.33
2022-12-25T04:23:48.794Z,14.03
2022-12-25T04:33:06.795Z,16.37
2022-12-25T04:37:38.073Z,14.73
2022-12-25T04:42:07.241Z,8.43
2022-12-25T04:46:21.318Z,14.67
2022-12-25T04:50:33.834Z,12.23
2022-12-25T04:54:46.815Z,9.53
2022-12-25T04:58:59.176Z,15.70
2022-12-25T05:03:23.423Z,10.90
2022-12-25T05:07:47.491Z,7.73
2022-12-25T05:12:01.416Z,11.30
2022-12-25T05:21:27.716Z,10.97
2022-12-25T05:25:45.772Z,5.23
2022-12-25T05:29:58.097Z,7.70
2022-12-25T05:34:17.579Z,5.57
2022-12-25T05:38:30.655Z,5.83
2022-12-25T05:42:47.478Z,7.80
2022-12-25T05:47:00.474Z,12.53
2022-12-25T05:51:12.191Z,10.63
2022-12-25T05:55:24.656Z,8.30
2022-12-25T05:59:44.169Z,6.40
2022-12-25T06:03:57.407Z,6.13
2022-12-25T06:08:07.443Z,8.50
2022-12-25T06:12:18.733Z,9.57
2022-12-25T06:16:37.685Z,9.60
2022-12-25T06:20:48.974Z,7.67
2022-12-25T06:25:03.556Z,3.43
2022-12-25T06:29:15.413Z,6.60
2022-12-25T06:33:42.246Z,3.93
2022-12-25T06:38:07.474Z,2.07
2022-12-25T06:42:34.956Z,1.90
2022-12-25T06:46:48.169Z,4.70
2022-12-25T06:51:01.214Z,2.93
2022-12-25T06:55:20.715Z,6.43
2022-12-25T06:59:36.817Z,4.40
2022-12-25T07:03:56.831Z,2.40
2022-12-25T07:08:12.593Z,1.87
2022-12-25T07:12:29.336Z,1.50
2022-12-25T07:16:41.553Z,2.63
2022-12-25T07:20:59.645Z,3.43
2022-12-25T07:25:11.755Z,3.10
2022-12-25T07:29:25.892Z,4.23
2022-12-25T07:33:40.039Z,1.93
2022-12-25T07:37:51.898Z,4.73
2022-12-25T07:42:09.467Z,4.43
2022-12-25T07:46:36.472Z,3.80
2022-12-25T07:50:48.808Z,5.63
2022-12-25T07:54:59.671Z,5.23
2022-12-25T07:59:15.172Z,3.20
2022-12-25T08:03:32.156Z,5.17
2022-12-25T08:07:46.113Z,4.93
2022-12-25T08:11:57.037Z,3.43
2022-12-25T08:16:30.991Z,3.77
2022-12-25T08:20:58.364Z,5.37
2022-12-25T08:25:18.710Z,3.60
2022-12-25T08:39:19.491Z,2.00
2022-12-25T08:52:47.149Z,3.37
2022-12-25T09:02:05.131Z,2.07
2022-12-25T09:15:32.565Z,6.63
2022-12-25T09:19:46.596Z,3.87
2022-12-25T09:24:00.379Z,2.90
2022-12-25T09:28:30.534Z,2.63
2022-12-25T09:32:44.181Z,4.67
2022-12-25T09:37:01.789Z,3.47
2022-12-25T09:41:33.929Z,2.17
2022-12-25T09:45:45.899Z,3.90
2022-12-25T09:50:05.511Z,4.17
2022-12-25T09:54:24.329Z,2.73
2022-12-25T09:58:47.428Z,2.27
2022-12-25T10:03:23.207Z,2.13
2022-12-25T10:13:03.284Z,3.83
2022-12-25T10:17:28.975Z,2.60
2022-12-25T10:21:40.012Z,3.93
2022-12-25T10:25:53.544Z,2.60
2022-12-25T10:30:08.510Z,2.80
2022-12-25T10:34:18.650Z,2.90
2022-12-25T10:38:30.350Z,2.30
2022-12-25T10:42:42.732Z,2.00
2022-12-25T10:46:53.657Z,1.70
2022-12-25T10:51:03.971Z,0.70
2022-12-25T10:55:25.090Z,1.57
2022-12-25T10:59:44.354Z,1.90
2022-12-25T11:03:54.430Z,1.77
2022-12-25T11:08:05.471Z,2.57
2022-12-25T11:12:21.373Z,1.83
2022-12-25T11:16:33.192Z,4.00
2022-12-25T11:20:50.869Z,4.10
2022-12-25T11:25:12.749Z,4.77
2022-12-25T11:29:37.116Z,2.07
2022-12-25T11:33:52.430Z,0.97
2022-12-25T11:38:05.217Z,2.20
2022-12-25T11:42:19.452Z,1.73
2022-12-25T11:46:39.256Z,1.37
2022-12-25T11:50:55.858Z,1.67
2022-12-25T11:55:10.428Z,3.13
2022-12-25T11:59:27.693Z,2.20
2022-12-25T12:03:41.613Z,2.93
2022-12-25T12:08:01.990Z,3.43
2022-12-25T12:12:17.511Z,1.77
2022-12-25T12:16:27.250Z,1.90
2022-12-25T12:20:39.308Z,1.57
2022-12-25T12:24:56.473Z,2.97
2022-12-25T12:29:08.207Z,1.63
2022-12-25T12:33:22.155Z,1.03
2022-12-25T12:37:40.850Z,1.40
2022-12-25T12:42:06.269Z,1.50
2022-12-25T12:46:31.102Z,3.03
2022-12-25T12:51:11.007Z,1.10
2022-12-25T12:55:34.968Z,1.53
2022-12-25T13:00:08.110Z,0.83
2022-12-25T16:32:07.455Z,7.93
2022-12-25T16:36:25.079Z,8.33
2022-12-25T16:50:25.391Z,11.40
2022-12-25T18:43:02.778Z,7.53
2022-12-25T18:47:40.108Z,17.87
2022-12-25T18:51:53.153Z,9.97
2022-12-25T18:56:28.794Z,8.33
2022-12-25T19:00:41.287Z,7.47
2022-12-25T19:05:29.470Z,5.83
2022-12-25T19:09:38.903Z,9.50
2022-12-25T19:13:48.744Z,6.80
2022-12-25T19:17:57.887Z,11.03
2022-12-25T19:22:19.349Z,8.73
2022-12-25T19:26:28.610Z,12.03
2022-12-25T19:30:40.170Z,9.53
2022-12-25T19:34:59.073Z,11.73
2022-12-25T19:44:26.495Z,10.63
2022-12-25T19:48:36.677Z,14.70
2022-12-25T19:52:46.277Z,13.20
2022-12-25T19:56:57.490Z,13.60
2022-12-25T20:01:15.703Z,10.17
2022-12-25T20:05:25.437Z,14.17
2022-12-25T20:09:34.905Z,8.43
2022-12-25T20:13:45.993Z,12.10
2022-12-25T20:17:56.110Z,20.10
2022-12-25T20:22:13.089Z,13.53
2022-12-25T20:26:25.172Z,12.07
2022-12-25T20:30:36.250Z,14.10
2022-12-25T20:34:47.193Z,18.43
2022-12-25T20:38:58.999Z,16.77
2022-12-25T20:43:13.498Z,11.23
2022-12-25T23:29:52.631Z,7.05
2022-12-25T23:34:07.341Z,19.57
2022-12-25T23:43:37.863Z,19.93
2022-12-25T23:48:36.735Z,16.47
2022-12-25T23:53:11.450Z,16.10
2022-12-25T23:57:22.890Z,16.00
